Time;durP1;ratioP1;P1;durP2;ratioP2;P2;SDS_P1;SDS_P2;PMS_P1;PMS_P2;Temp;Humidity;BMP_temperature;BMP_pressure;BME280_temperature;BME280_humidity;BME280_pressure;Samples;Min_cycle;Max_cycle;Signal;HPM_P1;HPM_P2
2022/10/23 00:01:15;;;;;;;56.30;30.08;;;;;;;;;;7389884;19;20361;-82
2022/10/23 00:03:40;;;;;;;51.70;29.27;;;;;;;;;;7391099;19;20010;-82
2022/10/23 00:06:06;;;;;;;47.05;24.02;;;;;;;;;;7389619;19;20002;-82
2022/10/23 00:08:32;;;;;;;37.60;23.38;;;;;;;;;;7390495;19;20006;-82
2022/10/23 00:10:57;;;;;;;32.97;18.77;;;;;;;;;;7388333;19;19999;-82
2022/10/23 00:13:22;;;;;;;32.85;17.75;;;;;;;;;;7389014;19;20355;-82
2022/10/23 00:15:48;;;;;;;31.40;17.05;;;;;;;;;;7391102;19;20020;-83
2022/10/23 00:18:13;;;;;;;28.42;15.63;;;;;;;;;;7391391;19;20058;-81
2022/10/23 00:20:38;;;;;;;28.17;15.18;;;;;;;;;;7386951;19;20349;-82
2022/10/23 00:23:04;;;;;;;27.20;14.98;;;;;;;;;;7389773;19;20034;-82
2022/10/23 00:25:29;;;;;;;22.60;13.18;;;;;;;;;;7388223;19;20508;-82
2022/10/23 00:27:54;;;;;;;27.02;14.05;;;;;;;;;;7390872;19;20020;-83
2022/10/23 00:30:20;;;;;;;26.60;13.20;;;;;;;;;;7388554;19;20019;-83
2022/10/23 00:32:45;;;;;;;25.55;12.88;;;;;;;;;;7388693;19;20023;-84
2022/10/23 00:35:10;;;;;;;23.65;12.25;;;;;;;;;;7389895;19;20031;-84
2022/10/23 00:37:36;;;;;;;25.13;13.98;;;;;;;;;;7389888;19;20003;-82
2022/10/23 00:40:01;;;;;;;24.35;12.80;;;;;;;;;;7388439;19;19998;-82
2022/10/23 00:42:26;;;;;;;23.83;12.23;;;;;;;;;;7388384;19;20002;-81
2022/10/23 00:44:52;;;;;;;25.50;13.40;;;;;;;;;;7389886;19;20086;-81
2022/10/23 00:47:17;;;;;;;18.83;11.77;;;;;;;;;;7388194;19;20080;-82
2022/10/23 00:49:42;;;;;;;23.95;11.23;;;;;;;;;;7388370;19;20031;-83
2022/10/23 00:52:12;;;;;;;21.23;11.13;;;;;;;;;;7390056;19;20015;-82
2022/10/23 00:54:40;;;;;;;21.50;10.48;;;;;;;;;;7388209;19;19991;-82
2022/10/23 00:57:10;;;;;;;22.55;10.65;;;;;;;;;;7388363;19;20007;-82
2022/10/23 00:59:35;;;;;;;25.45;11.98;;;;;;;;;;7401581;19;20039;-81
2022/10/23 01:02:01;;;;;;;21.38;11.98;;;;;;;;;;7404420;19;20010;-81
2022/10/23 01:04:27;;;;;;;19.80;11.10;;;;;;;;;;7396191;19;19999;-81
2022/10/23 01:07:08;;;;;;;17.77;10.15;;;;;;;;;;7389104;19;19999;-82
2022/10/23 01:09:48;;;;;;;;;;;;;;;;;;7390016;19;20007;-82
2022/10/23 01:12:41;;;;;;;18.65;8.65;;;;;;;;;;7388638;19;19914;-83
2022/10/23 01:15:09;;;;;;;16.48;8.40;;;;;;;;;;7389884;19;20010;-82
2022/10/23 01:18:11;;;;;;;19.20;8.20;;;;;;;;;;7389812;19;20085;-83
2022/10/23 01:21:03;;;;;;;23.38;8.35;;;;;;;;;;7386632;19;19998;-82
2022/10/23 01:23:28;;;;;;;;;;;;;;;;;;7392473;19;20062;-84
2022/10/23 01:26:17;;;;;;;18.33;7.67;;;;;;;;;;7386602;19;20029;-81
2022/10/23 01:28:51;;;;;;;22.05;8.75;;;;;;;;;;7388820;19;20058;-83
2022/10/23 01:31:27;;;;;;;19.67;7.70;;;;;;;;;;7389101;19;19995;-84
2022/10/23 01:34:16;;;;;;;17.20;9.48;;;;;;;;;;7387284;19;20066;-85
2022/10/23 01:36:45;;;;;;;17.77;8.38;;;;;;;;;;7388706;19;20012;-85
2022/10/23 01:39:17;;;;;;;18.50;8.32;;;;;;;;;;7387592;19;20007;-83
2022/10/23 01:41:51;;;;;;;22.92;9.05;;;;;;;;;;7386939;19;20628;-83
2022/10/23 01:44:29;;;;;;;16.35;8.77;;;;;;;;;;7388539;19;20002;-83
2022/10/23 01:46:56;;;;;;;16.63;8.07;;;;;;;;;;7386498;19;20006;-83
2022/10/23 01:49:22;;;;;;;21.90;8.07;;;;;;;;;;7387472;19;20010;-82
2022/10/23 01:51:52;;;;;;;19.10;8.35;;;;;;;;;;7386335;19;20023;-82
2022/10/23 01:54:22;;;;;;;18.45;8.77;;;;;;;;;;7387873;19;20018;-83
2022/10/23 01:56:50;;;;;;;16.10;8.13;;;;;;;;;;7386824;19;20007;-83
2022/10/23 01:59:21;;;;;;;18.95;8.75;;;;;;;;;;7387638;19;20023;-84
2022/10/23 02:01:50;;;;;;;16.70;8.43;;;;;;;;;;7385052;19;20532;-83
2022/10/23 02:04:22;;;;;;;20.65;7.70;;;;;;;;;;7387316;19;20020;-83
2022/10/23 02:06:48;;;;;;;21.55;8.98;;;;;;;;;;7386767;19;20003;-83
2022/10/23 02:09:13;;;;;;;16.23;7.50;;;;;;;;;;7386998;19;20003;-84
2022/10/23 02:11:50;;;;;;;16.13;7.85;;;;;;;;;;7385917;19;20002;-83
2022/10/23 02:14:28;;;;;;;22.15;7.03;;;;;;;;;;7387072;19;20014;-83
2022/10/23 02:16:56;;;;;;;16.63;6.88;;;;;;;;;;7385697;19;20007;-82
2022/10/23 02:19:27;;;;;;;13.45;6.25;;;;;;;;;;7384251;19;20028;-83
2022/10/23 02:22:00;;;;;;;15.27;6.93;;;;;;;;;;7385413;19;20463;-84
2022/10/23 02:24:31;;;;;;;13.48;6.97;;;;;;;;;;7386570;19;20038;-84
2022/10/23 02:27:01;;;;;;;16.77;7.28;;;;;;;;;;7386084;19;20289;-84
2022/10/23 02:29:37;;;;;;;15.63;6.50;;;;;;;;;;7385914;19;20002;-84
2022/10/23 02:32:04;;;;;;;13.13;6.57;;;;;;;;;;7383587;19;20026;-84
2022/10/23 02:34:30;;;;;;;14.40;6.47;;;;;;;;;;7386613;19;20006;-84
2022/10/23 02:36:55;;;;;;;19.17;7.22;;;;;;;;;;7386482;19;20495;-84
2022/10/23 02:39:25;;;;;;;12.32;6.78;;;;;;;;;;7385812;19;20329;-84
2022/10/23 02:42:02;;;;;;;17.13;6.78;;;;;;;;;;7385054;19;20006;-85
2022/10/23 02:44:51;;;;;;;19.33;6.18;;;;;;;;;;7385030;19;20031;-84
2022/10/23 02:47:27;;;;;;;16.17;6.60;;;;;;;;;;7383204;19;20002;-84
2022/10/23 02:50:02;;;;;;;9.75;5.43;;;;;;;;;;7385677;19;20002;-84
2022/10/23 02:52:53;;;;;;;13.43;5.93;;;;;;;;;;7384595;19;20003;-84
2022/10/23 02:56:01;;;;;;;14.87;6.07;;;;;;;;;;7386463;19;20489;-84
2022/10/23 02:58:37;;;;;;;14.38;5.95;;;;;;;;;;7384239;19;20298;-84
2022/10/23 03:01:17;;;;;;;15.02;6.15;;;;;;;;;;7382752;19;20019;-84
2022/10/23 03:03:55;;;;;;;13.00;6.00;;;;;;;;;;7386202;19;20026;-84
2022/10/23 03:06:21;;;;;;;14.15;6.07;;;;;;;;;;7383089;19;20026;-84
2022/10/23 03:09:05;;;;;;;16.85;6.50;;;;;;;;;;7385964;19;20397;-85
2022/10/23 03:11:30;;;;;;;14.48;6.22;;;;;;;;;;7385206;19;20041;-84
2022/10/23 03:13:55;;;;;;;10.10;6.60;;;;;;;;;;7385915;19;20379;-85
2022/10/23 03:16:21;;;;;;;14.68;5.80;;;;;;;;;;7393526;19;20532;-84
2022/10/23 03:18:46;;;;;;;11.63;6.15;;;;;;;;;;7393277;19;19995;-84
2022/10/23 03:21:11;;;;;;;16.23;6.55;;;;;;;;;;7391968;19;20006;-85
2022/10/23 03:23:37;;;;;;;15.20;6.47;;;;;;;;;;7389185;19;20002;-85
2022/10/23 03:26:03;;;;;;;9.65;5.80;;;;;;;;;;7392019;19;20010;-82
2022/10/23 03:28:28;;;;;;;11.52;6.15;;;;;;;;;;7396866;19;20005;-83
2022/10/23 03:30:54;;;;;;;15.52;6.32;;;;;;;;;;7392533;19;20369;-85
2022/10/23 03:33:20;;;;;;;13.27;6.10;;;;;;;;;;7391271;19;20007;-85
2022/10/23 03:35:47;;;;;;;12.98;6.00;;;;;;;;;;7393278;19;20009;-84
2022/10/23 03:38:13;;;;;;;15.10;6.47;;;;;;;;;;7391995;19;20006;-85
2022/10/23 03:40:38;;;;;;;15.05;6.10;;;;;;;;;;7390794;19;20346;-84
2022/10/23 03:43:03;;;;;;;10.45;5.85;;;;;;;;;;7391534;19;19994;-84
2022/10/23 03:45:29;;;;;;;13.27;6.28;;;;;;;;;;7392211;19;20512;-84
2022/10/23 03:47:55;;;;;;;11.68;5.53;;;;;;;;;;7392174;19;20014;-85
2022/10/23 03:50:20;;;;;;;10.60;5.70;;;;;;;;;;7388833;19;20003;-82
2022/10/23 03:52:45;;;;;;;11.68;5.72;;;;;;;;;;7386673;19;20019;-83
2022/10/23 03:55:11;;;;;;;11.77;5.82;;;;;;;;;;7389188;19;19999;-84
2022/10/23 03:57:37;;;;;;;12.45;5.82;;;;;;;;;;7388807;19;20042;-84
2022/10/23 04:00:04;;;;;;;13.25;6.00;;;;;;;;;;7389813;19;19999;-84
2022/10/23 04:02:30;;;;;;;15.68;6.35;;;;;;;;;;7389864;19;20006;-84
2022/10/23 04:04:55;;;;;;;10.05;5.28;;;;;;;;;;7390974;19;20002;-84
2022/10/23 04:07:20;;;;;;;10.35;5.07;;;;;;;;;;7389306;19;20452;-84
2022/10/23 04:09:45;;;;;;;10.75;5.45;;;;;;;;;;7389374;19;20347;-85
2022/10/23 04:12:11;;;;;;;12.00;5.00;;;;;;;;;;7389589;19;19998;-84
2022/10/23 04:14:36;;;;;;;14.68;9.30;;;;;;;;;;7390748;19;19998;-83
2022/10/23 04:17:01;;;;;;;37.72;22.08;;;;;;;;;;7390758;19;19994;-82
2022/10/23 04:19:27;;;;;;;25.77;14.45;;;;;;;;;;7388866;19;20013;-84
2022/10/23 04:21:52;;;;;;;13.70;5.80;;;;;;;;;;7387393;19;20465;-85
2022/10/23 04:24:17;;;;;;;11.00;5.32;;;;;;;;;;7390540;19;20263;-84
2022/10/23 04:26:43;;;;;;;12.88;5.53;;;;;;;;;;7387807;19;20445;-84
2022/10/23 04:29:08;;;;;;;12.20;5.20;;;;;;;;;;7387581;19;20002;-84
2022/10/23 04:31:33;;;;;;;13.23;5.65;;;;;;;;;;7387227;19;20500;-84
2022/10/23 04:33:59;;;;;;;9.73;4.82;;;;;;;;;;7390564;19;20040;-84
2022/10/23 04:36:24;;;;;;;9.35;4.97;;;;;;;;;;7390432;19;20007;-83
2022/10/23 04:38:49;;;;;;;48.63;26.88;;;;;;;;;;7389479;19;20443;-84
2022/10/23 04:41:15;;;;;;;27.85;13.82;;;;;;;;;;7388534;19;20328;-84
2022/10/23 04:43:40;;;;;;;15.15;7.18;;;;;;;;;;7387855;19;20026;-83
2022/10/23 04:46:07;;;;;;;14.50;5.93;;;;;;;;;;7388339;19;20041;-84
2022/10/23 04:48:32;;;;;;;9.18;5.90;;;;;;;;;;7388965;19;20417;-83
2022/10/23 04:51:00;;;;;;;11.43;5.53;;;;;;;;;;7388862;19;20033;-83
2022/10/23 04:53:26;;;;;;;18.33;5.43;;;;;;;;;;7388664;19;20681;-83
2022/10/23 04:55:54;;;;;;;13.00;5.38;;;;;;;;;;7389923;19;20062;-84
2022/10/23 04:58:20;;;;;;;14.95;4.97;;;;;;;;;;7387198;19;20330;-83
2022/10/23 05:00:46;;;;;;;11.77;5.05;;;;;;;;;;7387953;19;20003;-84
2022/10/23 05:03:11;;;;;;;12.98;5.45;;;;;;;;;;7386422;19;19998;-84
2022/10/23 05:05:37;;;;;;;11.30;5.00;;;;;;;;;;7387273;19;20036;-83
2022/10/23 05:08:02;;;;;;;8.63;4.70;;;;;;;;;;7389012;19;20468;-84
2022/10/23 05:10:28;;;;;;;9.90;4.97;;;;;;;;;;7387684;19;19999;-83
2022/10/23 05:12:53;;;;;;;10.20;5.03;;;;;;;;;;7388007;19;20010;-84
2022/10/23 05:15:19;;;;;;;11.52;4.75;;;;;;;;;;7389376;19;20072;-83
2022/10/23 05:17:46;;;;;;;13.02;5.00;;;;;;;;;;7387956;19;20405;-84
2022/10/23 05:20:17;;;;;;;11.10;5.10;;;;;;;;;;7387997;19;19999;-84
2022/10/23 05:22:44;;;;;;;9.85;5.30;;;;;;;;;;7386331;19;20010;-77
2022/10/23 05:25:11;;;;;;;9.13;5.00;;;;;;;;;;7389021;19;20006;-83
2022/10/23 05:27:36;;;;;;;9.85;5.10;;;;;;;;;;7388598;19;19994;-83
2022/10/23 05:30:03;;;;;;;13.77;5.38;;;;;;;;;;7387555;19;19995;-84
2022/10/23 05:32:31;;;;;;;11.93;4.70;;;;;;;;;;7388890;19;20019;-84
2022/10/23 05:34:57;;;;;;;14.65;5.38;;;;;;;;;;7388737;19;20014;-84
2022/10/23 05:37:23;;;;;;;9.55;4.38;;;;;;;;;;7386631;19;19994;-84
2022/10/23 05:39:48;;;;;;;10.10;4.40;;;;;;;;;;7388117;19;20006;-84
2022/10/23 05:42:14;;;;;;;10.57;5.13;;;;;;;;;;7387011;19;20002;-83
2022/10/23 05:44:39;;;;;;;9.90;4.55;;;;;;;;;;7387414;19;19999;-84
2022/10/23 05:47:06;;;;;;;14.57;6.28;;;;;;;;;;7387397;19;20385;-83
2022/10/23 05:49:31;;;;;;;13.27;5.65;;;;;;;;;;7387713;19;20002;-86
2022/10/23 05:51:56;;;;;;;12.02;5.20;;;;;;;;;;7386946;19;20023;-83
2022/10/23 05:54:22;;;;;;;9.00;4.40;;;;;;;;;;7388694;19;19998;-86
2022/10/23 05:56:47;;;;;;;8.13;4.05;;;;;;;;;;7387692;19;19999;-85
2022/10/23 05:59:12;;;;;;;9.85;4.47;;;;;;;;;;7385216;19;19998;-84
2022/10/23 06:01:38;;;;;;;14.20;4.20;;;;;;;;;;7390962;19;20014;-85
2022/10/23 06:04:03;;;;;;;10.35;4.65;;;;;;;;;;7389040;19;20377;-84
2022/10/23 06:06:29;;;;;;;11.80;4.10;;;;;;;;;;7390013;19;20460;-84
2022/10/23 06:08:55;;;;;;;8.52;3.95;;;;;;;;;;7392843;19;20065;-84
2022/10/23 06:11:20;;;;;;;9.75;4.70;;;;;;;;;;7356441;19;20109;-72
2022/10/23 06:13:47;;;;;;;9.13;4.10;;;;;;;;;;7391803;19;20413;-71
2022/10/23 06:16:18;;;;;;;6.57;4.00;;;;;;;;;;7389227;19;20026;-71
2022/10/23 06:18:44;;;;;;;9.75;4.38;;;;;;;;;;7386454;19;20006;-72
2022/10/23 06:21:11;;;;;;;10.32;4.32;;;;;;;;;;7382381;19;20003;-71
2022/10/23 06:23:38;;;;;;;7.57;4.00;;;;;;;;;;7380254;19;20006;-70
2022/10/23 06:26:04;;;;;;;10.68;3.63;;;;;;;;;;7380057;19;20011;-72
2022/10/23 06:28:31;;;;;;;14.55;4.60;;;;;;;;;;7382158;19;19998;-70
2022/10/23 06:30:56;;;;;;;9.35;4.57;;;;;;;;;;7382246;19;20493;-72
2022/10/23 06:33:22;;;;;;;7.32;3.97;;;;;;;;;;7379834;19;19999;-72
2022/10/23 06:35:47;;;;;;;8.52;4.20;;;;;;;;;;7384149;19;20421;-72
2022/10/23 06:38:12;;;;;;;12.52;4.00;;;;;;;;;;7385022;19;19995;-71
2022/10/23 06:40:38;;;;;;;10.40;4.55;;;;;;;;;;7387192;19;20002;-72
2022/10/23 06:43:04;;;;;;;7.03;4.07;;;;;;;;;;7382799;19;20007;-72
2022/10/23 06:45:32;;;;;;;11.60;4.10;;;;;;;;;;7389742;19;20032;-70
2022/10/23 06:47:58;;;;;;;9.15;4.03;;;;;;;;;;7382327;19;20336;-71
2022/10/23 06:50:26;;;;;;;11.60;4.35;;;;;;;;;;7386702;19;20006;-70
2022/10/23 06:52:52;;;;;;;10.85;4.63;;;;;;;;;;7394212;19;20007;-71
2022/10/23 06:55:18;;;;;;;10.02;3.95;;;;;;;;;;7396517;19;20075;-77
2022/10/23 06:57:43;;;;;;;11.15;4.32;;;;;;;;;;7396506;19;20531;-81
2022/10/23 07:00:10;;;;;;;10.80;4.53;;;;;;;;;;7393747;19;19995;-81
2022/10/23 07:02:35;;;;;;;9.57;3.97;;;;;;;;;;7394448;19;20006;-82
2022/10/23 07:05:01;;;;;;;9.50;4.30;;;;;;;;;;7395895;19;19999;-81
2022/10/23 07:07:28;;;;;;;8.50;3.72;;;;;;;;;;7394094;19;19999;-82
2022/10/23 07:09:54;;;;;;;8.02;4.00;;;;;;;;;;7392070;19;20002;-83
2022/10/23 07:12:19;;;;;;;7.53;3.65;;;;;;;;;;7393218;19;20326;-82
2022/10/23 07:14:44;;;;;;;7.35;3.60;;;;;;;;;;7396609;19;20005;-82
2022/10/23 07:17:10;;;;;;;10.18;3.35;;;;;;;;;;7397064;19;20494;-82
2022/10/23 07:19:35;;;;;;;11.52;3.45;;;;;;;;;;7394473;19;20009;-84
2022/10/23 07:22:00;;;;;;;6.82;3.40;;;;;;;;;;7391199;19;20003;-85
2022/10/23 07:24:26;;;;;;;10.98;3.75;;;;;;;;;;7393055;19;19998;-84
2022/10/23 07:26:51;;;;;;;8.75;3.10;;;;;;;;;;7391321;19;20006;-76
2022/10/23 07:29:17;;;;;;;11.52;3.13;;;;;;;;;;7394731;19;20006;-77
2022/10/23 07:31:42;;;;;;;6.85;3.10;;;;;;;;;;7393964;19;20022;-77
2022/10/23 07:34:09;;;;;;;7.82;3.45;;;;;;;;;;7394287;19;20003;-78
2022/10/23 07:36:34;;;;;;;7.72;2.92;;;;;;;;;;7394780;19;20018;-78
2022/10/23 07:39:00;;;;;;;4.97;2.53;;;;;;;;;;7393987;19;20110;-79
2022/10/23 07:41:25;;;;;;;5.20;2.55;;;;;;;;;;7393617;19;19991;-77
2022/10/23 07:43:51;;;;;;;5.80;2.83;;;;;;;;;;7395400;19;20054;-76
2022/10/23 07:46:16;;;;;;;5.50;2.65;;;;;;;;;;7394633;19;20007;-78
2022/10/23 07:48:42;;;;;;;5.38;2.47;;;;;;;;;;7394470;19;20474;-77
2022/10/23 07:51:11;;;;;;;6.55;2.53;;;;;;;;;;7392819;19;20089;-76
2022/10/23 07:53:37;;;;;;;8.50;2.85;;;;;;;;;;7395787;19;20002;-79
2022/10/23 07:56:11;;;;;;;4.40;2.42;;;;;;;;;;7393935;19;20009;-77
2022/10/23 07:58:36;;;;;;;5.30;2.67;;;;;;;;;;7394925;19;19999;-77
2022/10/23 08:01:10;;;;;;;5.15;2.63;;;;;;;;;;7391122;19;19994;-79
2022/10/23 08:03:35;;;;;;;7.25;2.42;;;;;;;;;;7394820;19;20001;-79
2022/10/23 08:06:01;;;;;;;6.10;2.67;;;;;;;;;;7393264;19;20686;-79
2022/10/23 08:08:26;;;;;;;5.07;2.72;;;;;;;;;;7395122;19;20002;-79
2022/10/23 08:10:53;;;;;;;6.75;2.83;;;;;;;;;;7390172;19;20404;-79
2022/10/23 08:13:20;;;;;;;5.65;3.03;;;;;;;;;;7392373;19;20006;-79
2022/10/23 08:15:47;;;;;;;7.38;3.10;;;;;;;;;;7390735;19;20005;-80
2022/10/23 08:18:13;;;;;;;6.18;2.97;;;;;;;;;;7393065;19;20007;-81
2022/10/23 08:20:42;;;;;;;6.13;3.08;;;;;;;;;;7390097;19;20455;-80
2022/10/23 08:23:08;;;;;;;10.15;2.92;;;;;;;;;;7391390;19;20015;-83
2022/10/23 08:25:34;;;;;;;6.88;2.90;;;;;;;;;;7393579;19;20003;-82
2022/10/23 08:28:00;;;;;;;7.55;3.25;;;;;;;;;;7392344;19;20025;-81
2022/10/23 08:30:26;;;;;;;7.05;3.08;;;;;;;;;;7392308;19;19997;-80
2022/10/23 08:32:51;;;;;;;6.70;3.00;;;;;;;;;;7391818;19;20036;-81
2022/10/23 08:35:17;;;;;;;6.65;3.03;;;;;;;;;;7394104;19;20539;-80
2022/10/23 08:37:42;;;;;;;7.18;3.22;;;;;;;;;;7393289;19;19994;-80
2022/10/23 08:40:14;;;;;;;5.18;2.88;;;;;;;;;;7391059;19;20332;-83
2022/10/23 08:42:42;;;;;;;4.95;2.70;;;;;;;;;;7390966;19;20027;-79
2022/10/23 08:45:27;;;;;;;7.00;3.20;;;;;;;;;;7392563;19;20552;-82
2022/10/23 08:47:56;;;;;;;8.30;2.85;;;;;;;;;;7393340;19;20108;-80
2022/10/23 08:50:53;;;;;;;6.90;2.90;;;;;;;;;;7389683;19;19998;-84
2022/10/23 08:53:40;;;;;;;6.88;3.33;;;;;;;;;;7391067;19;20400;-82
2022/10/23 08:56:11;;;;;;;7.15;2.83;;;;;;;;;;7394941;19;20020;-82
2022/10/23 08:58:46;;;;;;;5.75;3.10;;;;;;;;;;7393293;19;20026;-80
2022/10/23 09:01:22;;;;;;;9.00;3.28;;;;;;;;;;7387976;19;20079;-80
2022/10/23 09:03:47;;;;;;;7.55;2.80;;;;;;;;;;7392671;19;20001;-82
2022/10/23 09:06:24;;;;;;;11.38;3.70;;;;;;;;;;7380206;19;20055;-79
2022/10/23 09:09:07;;;;;;;5.60;3.13;;;;;;;;;;7390324;19;21135;-82
2022/10/23 09:11:54;;;;;;;9.98;3.50;;;;;;;;;;7389678;19;20092;-81
2022/10/23 09:14:48;;;;;;;6.75;3.17;;;;;;;;;;7392036;19;19999;-80
2022/10/23 09:17:27;;;;;;;7.32;3.05;;;;;;;;;;7392011;19;20483;-80
2022/10/23 09:19:59;;;;;;;5.70;2.78;;;;;;;;;;7390083;19;20006;-82
2022/10/23 09:22:25;;;;;;;5.30;2.60;;;;;;;;;;7382086;19;20069;-78
2022/10/23 09:24:51;;;;;;;7.93;2.70;;;;;;;;;;7391512;19;20006;-76
2022/10/23 09:27:16;;;;;;;5.25;2.60;;;;;;;;;;7386518;19;20035;-83
2022/10/23 09:29:50;;;;;;;6.82;2.80;;;;;;;;;;7390386;19;20135;-84
2022/10/23 09:32:16;;;;;;;9.70;2.72;;;;;;;;;;7386976;19;19995;-85
2022/10/23 09:34:54;;;;;;;6.53;2.70;;;;;;;;;;7389011;19;19999;-85
2022/10/23 09:37:25;;;;;;;5.68;2.75;;;;;;;;;;7392609;19;20006;-84
2022/10/23 09:40:01;;;;;;;3.92;2.20;;;;;;;;;;7388474;19;20022;-84
2022/10/23 09:42:27;;;;;;;5.20;2.60;;;;;;;;;;7389041;19;19999;-81
2022/10/23 09:44:53;;;;;;;6.10;2.97;;;;;;;;;;7391833;19;19999;-82
2022/10/23 09:47:22;;;;;;;6.97;2.67;;;;;;;;;;7390152;19;20007;-82
2022/10/23 09:49:51;;;;;;;5.93;2.58;;;;;;;;;;7390793;19;20375;-81
2022/10/23 09:52:16;;;;;;;11.63;2.90;;;;;;;;;;7386259;19;20491;-82
2022/10/23 09:55:22;;;;;;;10.00;2.58;;;;;;;;;;7386523;19;19998;-82
2022/10/23 09:57:48;;;;;;;5.60;2.78;;;;;;;;;;7380316;19;20036;-80
2022/10/23 10:00:14;;;;;;;6.32;2.88;;;;;;;;;;7381512;19;20452;-83
2022/10/23 10:02:41;;;;;;;6.85;2.70;;;;;;;;;;7381743;19;19998;-83
2022/10/23 10:05:30;;;;;;;7.03;2.95;;;;;;;;;;7386413;19;20015;-83
2022/10/23 10:08:04;;;;;;;8.77;2.58;;;;;;;;;;7389400;19;20514;-81
2022/10/23 10:10:38;;;;;;;6.15;2.75;;;;;;;;;;7387806;19;20083;-83
2022/10/23 10:13:32;;;;;;;7.45;2.25;;;;;;;;;;7388690;19;19995;-80
2022/10/23 10:16:19;;;;;;;8.20;2.80;;;;;;;;;;7388118;19;20796;-81
2022/10/23 10:19:16;;;;;;;7.88;3.15;;;;;;;;;;7388581;19;20096;-82
2022/10/23 10:22:00;;;;;;;8.38;3.00;;;;;;;;;;7389416;19;19998;-83
2022/10/23 10:24:35;;;;;;;8.38;2.97;;;;;;;;;;7395280;19;20002;-81
2022/10/23 10:27:14;;;;;;;6.97;3.00;;;;;;;;;;7395232;19;19998;-82
2022/10/23 10:30:07;;;;;;;7.07;2.70;;;;;;;;;;7396827;19;20467;-82
2022/10/23 10:32:41;;;;;;;5.30;2.90;;;;;;;;;;7397199;19;20018;-83
2022/10/23 10:35:26;;;;;;;8.75;3.10;;;;;;;;;;7397764;19;19995;-82
2022/10/23 10:38:25;;;;;;;6.28;3.17;;;;;;;;;;7393742;19;19999;-83
2022/10/23 10:41:26;;;;;;;6.20;2.97;;;;;;;;;;7391741;19;19999;-81
2022/10/23 10:44:22;;;;;;;6.13;3.15;;;;;;;;;;7394591;19;19997;-82
2022/10/23 10:47:21;;;;;;;5.85;3.42;;;;;;;;;;7394229;19;20002;-83
2022/10/23 10:50:16;;;;;;;9.85;3.95;;;;;;;;;;7396735;19;19995;-82
2022/10/23 10:52:57;;;;;;;7.65;3.20;;;;;;;;;;7394583;19;20528;-81
2022/10/23 10:55:40;;;;;;;7.78;3.08;;;;;;;;;;7397049;19;20015;-82
2022/10/23 10:58:22;;;;;;;4.97;2.70;;;;;;;;;;7397163;19;20010;-82
2022/10/23 11:00:53;;;;;;;4.85;2.80;;;;;;;;;;7393373;19;19999;-81
2022/10/23 11:03:47;;;;;;;6.82;2.63;;;;;;;;;;7395364;19;19999;-81
2022/10/23 11:06:17;;;;;;;4.10;2.50;;;;;;;;;;7392134;19;19994;-82
2022/10/23 11:08:43;;;;;;;9.25;2.40;;;;;;;;;;7394145;19;20503;-81
2022/10/23 11:11:22;;;;;;;6.20;2.85;;;;;;;;;;7401660;19;19991;-82
2022/10/23 11:13:49;;;;;;;5.05;2.63;;;;;;;;;;7397105;19;20050;-83
2022/10/23 11:16:34;;;;;;;5.18;2.83;;;;;;;;;;7397508;19;20062;-83
2022/10/23 11:19:03;;;;;;;5.18;2.58;;;;;;;;;;7395489;19;20491;-80
2022/10/23 11:21:36;;;;;;;5.10;2.38;;;;;;;;;;7395811;19;19998;-81
2022/10/23 11:24:29;;;;;;;5.00;2.50;;;;;;;;;;7397469;19;20835;-82
2022/10/23 11:26:54;;;;;;;6.60;2.70;;;;;;;;;;7394243;19;19995;-84
2022/10/23 11:29:39;;;;;;;7.28;2.50;;;;;;;;;;7396532;19;20032;-83
2022/10/23 11:32:13;;;;;;;7.38;2.78;;;;;;;;;;7392615;19;19998;-82
2022/10/23 11:35:09;;;;;;;4.20;2.33;;;;;;;;;;7393763;19;20006;-83
2022/10/23 11:37:34;;;;;;;5.25;2.35;;;;;;;;;;7396449;19;20009;-84
2022/10/23 11:40:05;;;;;;;4.55;2.60;;;;;;;;;;7391667;19;20059;-83
2022/10/23 11:42:33;;;;;;;6.68;2.50;;;;;;;;;;7392599;19;19995;-82
2022/10/23 11:44:58;;;;;;;8.25;2.70;;;;;;;;;;7386210;19;20006;-86
2022/10/23 11:47:36;;;;;;;4.82;2.42;;;;;;;;;;7392230;19;20480;-85
2022/10/23 11:50:08;;;;;;;6.57;2.40;;;;;;;;;;7389960;19;20034;-83
2022/10/23 11:52:35;;;;;;;7.78;2.28;;;;;;;;;;7394201;19;20006;-87
2022/10/23 11:55:16;;;;;;;4.88;2.40;;;;;;;;;;7398026;19;20010;-85
2022/10/23 11:57:42;;;;;;;5.85;2.25;;;;;;;;;;7396662;19;20006;-85
2022/10/23 12:00:21;;;;;;;5.82;2.45;;;;;;;;;;7389484;19;20118;-85
2022/10/23 12:02:52;;;;;;;3.25;1.90;;;;;;;;;;7395633;19;20006;-87
2022/10/23 12:05:30;;;;;;;10.80;2.63;;;;;;;;;;7399992;19;20070;-89
2022/10/23 12:08:00;;;;;;;5.43;2.22;;;;;;;;;;7398574;19;20002;-87
2022/10/23 12:10:29;;;;;;;4.13;2.20;;;;;;;;;;7402230;19;20357;-89
2022/10/23 12:13:02;;;;;;;10.60;3.22;;;;;;;;;;7405788;19;20066;-87
2022/10/23 12:15:28;;;;;;;4.75;2.22;;;;;;;;;;7405067;19;20037;-87
2022/10/23 12:18:15;;;;;;;4.32;2.25;;;;;;;;;;7403498;19;20019;-88
2022/10/23 12:20:51;;;;;;;8.20;2.30;;;;;;;;;;7396977;19;20009;-87
2022/10/23 12:23:38;;;;;;;7.75;2.30;;;;;;;;;;7396995;19;19995;-87
2022/10/23 12:26:15;;;;;;;6.55;2.33;;;;;;;;;;7402629;19;19999;-87
2022/10/23 12:28:55;;;;;;;3.72;2.00;;;;;;;;;;7399943;19;20002;-86
2022/10/23 12:31:54;;;;;;;4.93;1.88;;;;;;;;;;7410200;19;20005;-88
2022/10/23 12:34:37;;;;;;;5.85;2.10;;;;;;;;;;7417346;19;20010;-87
2022/10/23 12:37:05;;;;;;;5.05;2.10;;;;;;;;;;7414582;19;19995;-87
2022/10/23 12:39:39;;;;;;;4.03;2.20;;;;;;;;;;7404986;19;20002;-87
2022/10/23 12:42:23;;;;;;;5.78;2.28;;;;;;;;;;7396329;19;20349;-86
2022/10/23 12:45:25;;;;;;;4.82;2.13;;;;;;;;;;7404123;19;20065;-89
2022/10/23 12:47:51;;;;;;;5.60;2.05;;;;;;;;;;7394106;19;19998;-88
2022/10/23 12:50:27;;;;;;;4.60;2.20;;;;;;;;;;7398029;19;20027;-87
2022/10/23 12:52:59;;;;;;;2.97;1.80;;;;;;;;;;7393308;19;19999;-87
2022/10/23 12:55:29;;;;;;;5.40;2.03;;;;;;;;;;7398342;19;20009;-87
2022/10/23 12:57:55;;;;;;;3.40;1.53;;;;;;;;;;7396117;19;20006;-88
2022/10/23 13:00:22;;;;;;;3.75;1.80;;;;;;;;;;7393054;19;20019;-88
2022/10/23 13:02:59;;;;;;;4.93;1.67;;;;;;;;;;7393300;19;20062;-87
2022/10/23 13:05:25;;;;;;;5.03;2.08;;;;;;;;;;7393507;19;20515;-87
2022/10/23 13:07:51;;;;;;;5.30;1.85;;;;;;;;;;7392474;19;20356;-87
2022/10/23 13:10:18;;;;;;;3.97;1.90;;;;;;;;;;7392155;19;20006;-89
2022/10/23 13:12:52;;;;;;;8.07;2.08;;;;;;;;;;7393834;19;20045;-88
2022/10/23 13:15:19;;;;;;;3.55;1.80;;;;;;;;;;7395451;19;19998;-88
2022/10/23 13:18:06;;;;;;;6.38;2.00;;;;;;;;;;7394840;19;20007;-89
2022/10/23 13:20:35;;;;;;;4.95;1.90;;;;;;;;;;7392884;19;20085;-88
2022/10/23 13:23:10;;;;;;;3.88;2.00;;;;;;;;;;7395405;19;20036;-88
2022/10/23 13:25:37;;;;;;;4.70;1.88;;;;;;;;;;7396716;19;20517;-88
2022/10/23 13:28:24;;;;;;;2.67;1.75;;;;;;;;;;7394213;19;19999;-86
2022/10/23 13:31:10;;;;;;;5.28;2.45;;;;;;;;;;7390506;19;19994;-87
2022/10/23 13:33:44;;;;;;;7.57;2.17;;;;;;;;;;7388741;19;19998;-87
2022/10/23 13:36:12;;;;;;;4.68;1.83;;;;;;;;;;7390914;19;20428;-87
2022/10/23 13:38:41;;;;;;;6.47;2.28;;;;;;;;;;7392372;19;20015;-87
2022/10/23 13:41:15;;;;;;;5.65;2.47;;;;;;;;;;7394088;19;20010;-88
2022/10/23 13:43:42;;;;;;;7.97;2.10;;;;;;;;;;7393718;19;20002;-88
2022/10/23 13:46:14;;;;;;;3.85;2.15;;;;;;;;;;7396994;19;20452;-88
2022/10/23 13:48:40;;;;;;;4.03;1.60;;;;;;;;;;7390996;19;20066;-88
2022/10/23 13:51:11;;;;;;;12.70;2.47;;;;;;;;;;7390657;19;20006;-87
2022/10/23 13:53:37;;;;;;;6.75;2.10;;;;;;;;;;7392375;19;19998;-87
2022/10/23 13:56:02;;;;;;;5.70;2.25;;;;;;;;;;7389106;19;20018;-88
2022/10/23 13:58:27;;;;;;;7.97;2.35;;;;;;;;;;7387851;19;20002;-86
2022/10/23 14:00:53;;;;;;;9.30;2.10;;;;;;;;;;7388226;19;20014;-90
2022/10/23 14:03:23;;;;;;;4.88;1.80;;;;;;;;;;7388531;19;19998;-87
2022/10/23 14:05:48;;;;;;;3.53;1.80;;;;;;;;;;7387779;19;20006;-87
2022/10/23 14:08:13;;;;;;;5.40;1.90;;;;;;;;;;7383103;19;19999;-85
2022/10/23 14:10:39;;;;;;;4.15;2.08;;;;;;;;;;7386158;19;20015;-86
2022/10/23 14:13:04;;;;;;;6.53;2.15;;;;;;;;;;7389683;19;20456;-79
2022/10/23 14:15:29;;;;;;;2.72;1.85;;;;;;;;;;7391654;19;20452;-85
2022/10/23 14:17:55;;;;;;;6.72;2.15;;;;;;;;;;7387270;19;20751;-88
2022/10/23 14:20:20;;;;;;;5.55;1.90;;;;;;;;;;7386389;19;20007;-88
2022/10/23 14:22:45;;;;;;;3.28;1.80;;;;;;;;;;7388487;19;20008;-84
2022/10/23 14:25:11;;;;;;;7.05;2.40;;;;;;;;;;7389945;19;19995;-77
2022/10/23 14:27:36;;;;;;;7.90;2.10;;;;;;;;;;7388244;19;19999;-75
2022/10/23 14:30:02;;;;;;;3.97;1.98;;;;;;;;;;7385894;19;19998;-77
2022/10/23 14:32:28;;;;;;;5.15;2.15;;;;;;;;;;7386118;19;20006;-76
2022/10/23 14:34:54;;;;;;;6.30;2.10;;;;;;;;;;7389803;19;20465;-78
2022/10/23 14:37:20;;;;;;;3.50;2.05;;;;;;;;;;7388229;19;20041;-78
2022/10/23 14:39:46;;;;;;;6.10;1.80;;;;;;;;;;7388866;19;20003;-77
2022/10/23 14:42:12;;;;;;;4.28;1.92;;;;;;;;;;7386406;19;20021;-76
2022/10/23 14:44:37;;;;;;;4.13;2.13;;;;;;;;;;7388035;19;20463;-78
2022/10/23 14:47:03;;;;;;;5.55;2.00;;;;;;;;;;7387589;19;20063;-77
2022/10/23 14:49:28;;;;;;;4.47;2.15;;;;;;;;;;7388706;19;20034;-78
2022/10/23 14:51:54;;;;;;;3.22;1.80;;;;;;;;;;7385658;19;20002;-76
2022/10/23 14:54:19;;;;;;;5.03;2.35;;;;;;;;;;7388568;19;20003;-77
2022/10/23 14:56:44;;;;;;;3.60;1.98;;;;;;;;;;7389008;19;20059;-77